createdAt,value
2018-03-15T06:23:59.071Z,6.07
2018-03-15T06:26:25.459Z,6.67
2018-03-15T06:28:51.615Z,6.37
2018-03-15T06:31:17.819Z,6.40
2018-03-15T06:33:43.987Z,6.00
2018-03-15T06:36:10.105Z,5.97
2018-03-15T06:38:36.246Z,6.20
2018-03-15T06:41:02.403Z,6.07
2018-03-15T06:43:28.610Z,5.93
2018-03-15T06:45:54.760Z,6.17
2018-03-15T06:48:20.901Z,5.37
2018-03-15T06:50:47.054Z,5.90
2018-03-15T06:53:13.213Z,5.93
2018-03-15T06:55:39.372Z,5.80
2018-03-15T06:58:06.280Z,5.53
2018-03-15T07:00:32.469Z,5.40
2018-03-15T07:02:58.605Z,6.07
2018-03-15T07:05:24.915Z,5.57
2018-03-15T07:07:51.142Z,5.53
2018-03-15T07:10:17.285Z,5.50
2018-03-15T07:12:43.475Z,5.60
2018-03-15T07:15:09.691Z,5.63
2018-03-15T07:17:35.912Z,5.67
2018-03-15T07:20:02.135Z,5.50
2018-03-15T07:22:28.333Z,5.10
2018-03-15T07:24:54.786Z,5.53
2018-03-15T07:27:21.009Z,5.20
2018-03-15T07:29:47.325Z,5.43
2018-03-15T07:32:13.555Z,5.20
2018-03-15T07:34:39.877Z,5.20
2018-03-15T07:37:06.041Z,5.30
2018-03-15T07:39:32.257Z,4.97
2018-03-15T07:41:58.451Z,4.70
2018-03-15T07:44:24.616Z,5.00
2018-03-15T07:46:50.769Z,4.87
2018-03-15T07:49:16.970Z,5.00
2018-03-15T07:51:43.247Z,4.47
2018-03-15T07:54:09.366Z,4.57
2018-03-15T07:56:35.632Z,4.87
2018-03-15T07:59:01.832Z,5.10
2018-03-15T08:01:28.125Z,4.47
2018-03-15T08:03:54.391Z,4.43
2018-03-15T08:06:20.604Z,4.67
2018-03-15T08:08:46.864Z,4.40
2018-03-15T08:11:13.046Z,4.20
2018-03-15T08:13:39.189Z,4.40
2018-03-15T08:16:05.343Z,4.20
2018-03-15T08:18:31.621Z,4.13
2018-03-15T08:20:57.757Z,3.83
2018-03-15T08:23:23.919Z,3.90
2018-03-15T08:25:50.119Z,3.50
2018-03-15T08:28:17.203Z,3.70
2018-03-15T08:30:43.368Z,3.67
2018-03-15T08:33:09.491Z,3.87
2018-03-15T08:35:35.814Z,3.93
2018-03-15T08:38:02.064Z,3.73
2018-03-15T08:40:28.257Z,3.83
2018-03-15T08:42:54.495Z,3.77
2018-03-15T08:45:20.869Z,4.20
2018-03-15T08:47:47.119Z,4.10
2018-03-15T08:50:13.258Z,4.13
2018-03-15T08:52:39.456Z,3.70
2018-03-15T08:55:05.565Z,3.90
2018-03-15T08:57:31.768Z,4.40
2018-03-15T08:59:57.925Z,4.03
2018-03-15T09:02:24.077Z,3.80
2018-03-15T09:04:50.368Z,4.13
2018-03-15T09:07:16.445Z,4.00
2018-03-15T09:09:43.449Z,3.97
2018-03-15T09:12:09.899Z,4.10
2018-03-15T09:14:36.609Z,4.27
2018-03-15T09:17:03.356Z,4.23
2018-03-15T09:19:29.846Z,4.00
2018-03-15T09:21:56.267Z,4.73
2018-03-15T09:24:22.766Z,4.97
2018-03-15T09:26:49.167Z,4.50
2018-03-15T09:29:15.351Z,5.47
2018-03-15T09:31:41.873Z,5.10
2018-03-15T09:34:08.698Z,5.17
2018-03-15T09:36:36.156Z,5.63
2018-03-15T09:39:05.982Z,5.27
2018-03-15T09:41:36.487Z,4.80
2018-03-15T09:44:02.906Z,5.03
2018-03-15T09:46:29.745Z,5.23
2018-03-15T09:48:56.232Z,5.07
2018-03-15T09:51:22.921Z,5.30
2018-03-15T09:53:49.450Z,4.37
2018-03-15T09:56:16.527Z,5.50
2018-03-15T09:58:44.636Z,5.10
2018-03-15T10:01:11.164Z,4.77
2018-03-15T10:03:37.527Z,4.40
2018-03-15T10:06:04.126Z,4.00
2018-03-15T10:08:47.620Z,4.23
2018-03-15T10:31:54.039Z,3.20
2018-03-15T10:34:20.254Z,3.57
2018-03-15T10:36:46.532Z,3.10
2018-03-15T10:39:12.858Z,3.47
2018-03-15T10:41:39.176Z,3.20
2018-03-15T10:44:05.438Z,3.00
2018-03-15T10:46:31.741Z,3.60
2018-03-15T10:48:58.149Z,3.97
2018-03-15T10:51:24.485Z,3.27
2018-03-15T10:53:50.850Z,3.43
2018-03-15T10:56:17.147Z,3.13
2018-03-15T10:58:43.403Z,3.30
2018-03-15T11:01:09.653Z,4.00
2018-03-15T11:03:36.143Z,3.60
2018-03-15T11:06:02.409Z,2.90
2018-03-15T11:08:28.816Z,3.97
2018-03-15T11:10:55.130Z,2.90
2018-03-15T11:13:21.520Z,3.40
2018-03-15T11:15:47.806Z,3.60
2018-03-15T11:18:14.039Z,3.80
2018-03-15T11:20:40.305Z,3.27
2018-03-15T11:23:06.528Z,3.00
2018-03-15T11:25:32.777Z,3.20
2018-03-15T11:27:59.026Z,2.97
2018-03-15T11:30:33.132Z,3.27
2018-03-15T11:32:59.366Z,3.00
2018-03-15T11:35:25.646Z,3.20
2018-03-15T11:37:51.987Z,3.50
2018-03-15T11:51:00.166Z,3.10
2018-03-15T11:53:26.493Z,2.90
2018-03-15T11:55:52.913Z,3.07
2018-03-15T11:58:19.167Z,3.30
2018-03-15T12:11:26.610Z,2.90
2018-03-15T12:13:54.917Z,3.37
2018-03-15T12:16:21.081Z,3.10
2018-03-15T12:18:47.343Z,3.30
2018-03-15T12:21:13.611Z,2.60
2018-03-15T12:23:39.822Z,3.50
2018-03-15T12:26:06.019Z,3.10
2018-03-15T12:28:32.252Z,3.27
2018-03-15T12:30:58.495Z,3.13
2018-03-15T12:33:24.815Z,3.17
2018-03-15T12:35:51.039Z,3.00
2018-03-15T12:38:18.362Z,3.13
2018-03-15T12:40:51.970Z,2.90
2018-03-15T12:43:18.470Z,2.97
2018-03-15T12:45:46.729Z,3.20
2018-03-15T12:53:55.744Z,3.72
2018-03-15T16:37:40.830Z,4.00
2018-03-15T16:40:07.166Z,4.50
2018-03-15T16:42:33.561Z,4.60
2018-03-15T16:44:59.887Z,4.30
2018-03-15T16:47:26.229Z,4.63
2018-03-15T16:50:21.951Z,4.53
2018-03-15T16:54:41.862Z,4.90
2018-03-15T16:57:08.208Z,4.97
2018-03-15T16:59:34.591Z,4.90
2018-03-15T17:02:00.955Z,4.50
2018-03-15T17:04:27.338Z,5.60
2018-03-15T17:06:53.710Z,5.30
2018-03-15T17:09:20.139Z,5.10
2018-03-15T17:11:46.478Z,5.33
2018-03-15T17:14:12.861Z,5.27
2018-03-15T17:16:39.199Z,5.20
2018-03-15T17:19:05.577Z,5.07
2018-03-15T17:21:32.000Z,5.03
2018-03-15T17:23:58.340Z,4.90
2018-03-15T17:26:24.809Z,5.40
2018-03-15T17:28:51.228Z,5.43
2018-03-15T17:31:17.623Z,5.83
2018-03-15T17:33:43.981Z,5.27
2018-03-15T17:36:10.478Z,5.00
2018-03-15T17:38:36.815Z,5.13
2018-03-15T17:41:03.168Z,5.10
2018-03-15T17:43:29.558Z,5.50
2018-03-15T17:45:55.963Z,5.37
2018-03-15T17:48:22.337Z,4.83
2018-03-15T17:50:48.703Z,4.90
2018-03-15T17:53:15.093Z,4.70
2018-03-15T17:55:41.469Z,5.43
2018-03-15T17:58:07.846Z,5.03
2018-03-15T18:00:34.197Z,5.40
2018-03-15T18:03:00.573Z,5.23
2018-03-15T18:05:27.024Z,4.80
2018-03-15T18:07:53.366Z,4.87
2018-03-15T18:10:19.697Z,5.33
2018-03-15T18:12:46.041Z,5.27
2018-03-15T18:15:12.378Z,5.17
2018-03-15T18:17:38.810Z,5.20
2018-03-15T18:20:05.156Z,5.00
2018-03-15T18:22:31.481Z,5.30
2018-03-15T18:24:57.811Z,5.20
2018-03-15T18:27:24.177Z,5.30
2018-03-15T18:29:50.552Z,5.67
2018-03-15T18:32:16.930Z,5.53
2018-03-15T18:34:43.271Z,5.23
2018-03-15T18:37:09.699Z,5.07
2018-03-15T18:39:36.039Z,5.90
2018-03-15T18:42:02.503Z,4.73
2018-03-15T18:44:28.831Z,5.37
2018-03-15T18:46:55.187Z,5.40
2018-03-15T18:49:21.526Z,5.43
2018-03-15T18:51:47.942Z,4.87
2018-03-15T18:54:14.325Z,5.20
2018-03-15T18:56:40.698Z,5.47
2018-03-15T18:59:07.051Z,5.27
2018-03-15T19:01:33.395Z,5.50
2018-03-15T19:03:59.722Z,5.67
2018-03-15T19:06:26.188Z,5.73
2018-03-15T19:08:52.524Z,5.60
2018-03-15T19:11:18.862Z,6.10
2018-03-15T19:13:45.202Z,5.97
2018-03-15T19:16:11.541Z,5.40
2018-03-15T19:18:37.929Z,5.57
2018-03-15T19:21:04.279Z,5.20
2018-03-15T19:23:30.649Z,5.47
2018-03-15T19:25:57.022Z,5.37
2018-03-15T19:28:23.402Z,5.07
2018-03-15T19:30:49.753Z,5.60
2018-03-15T19:33:16.135Z,5.33
2018-03-15T19:35:42.525Z,5.73
2018-03-15T19:38:08.863Z,5.47
2018-03-15T19:40:35.320Z,5.00
2018-03-15T19:43:01.701Z,5.40
2018-03-15T19:45:28.058Z,5.33
2018-03-15T19:47:54.437Z,5.53
2018-03-15T19:50:20.912Z,5.30
2018-03-15T19:52:47.245Z,5.43
2018-03-15T19:55:13.632Z,5.40
2018-03-15T19:57:40.042Z,5.57
2018-03-15T20:00:06.379Z,5.07
2018-03-15T20:02:32.710Z,5.33
2018-03-15T20:04:59.051Z,5.63
2018-03-15T20:07:25.397Z,5.43
2018-03-15T20:09:51.740Z,5.70
2018-03-15T20:12:18.144Z,5.40
2018-03-15T20:14:44.498Z,5.47
2018-03-15T20:17:10.865Z,5.30
2018-03-15T20:19:37.213Z,5.53
2018-03-15T20:22:03.654Z,5.57
2018-03-15T20:24:29.988Z,5.57
2018-03-15T20:26:56.391Z,5.70
2018-03-15T20:29:22.785Z,5.73
2018-03-15T20:31:49.180Z,5.63
2018-03-15T20:34:15.558Z,5.53
2018-03-15T20:36:41.920Z,5.67
2018-03-15T20:39:08.246Z,6.00
2018-03-15T20:41:34.619Z,5.77
2018-03-15T20:44:00.971Z,6.00
2018-03-15T20:46:27.354Z,5.80
2018-03-15T20:48:53.728Z,5.83
2018-03-15T20:51:20.126Z,5.97
2018-03-15T20:53:46.465Z,6.10
2018-03-15T20:56:12.838Z,6.10
2018-03-15T20:58:39.306Z,6.00
2018-03-15T21:01:05.711Z,5.93
2018-03-15T21:03:32.076Z,6.10
2018-03-15T21:05:58.441Z,6.20
2018-03-15T21:08:24.841Z,6.33
2018-03-15T21:10:51.371Z,6.40
2018-03-15T21:13:17.962Z,6.10
2018-03-15T21:15:44.310Z,6.03
2018-03-15T21:18:10.649Z,6.20
2018-03-15T21:20:37.029Z,6.37
2018-03-15T21:23:03.457Z,6.23
2018-03-15T21:25:29.791Z,6.60
2018-03-15T21:27:56.269Z,5.97
2018-03-15T21:30:22.622Z,6.60
2018-03-15T21:32:49.025Z,6.20
2018-03-15T21:35:15.354Z,6.43
2018-03-15T21:40:14.194Z,6.43
2018-03-15T21:42:40.606Z,6.50
2018-03-15T21:45:06.948Z,6.60
2018-03-15T21:47:33.333Z,6.57
2018-03-15T21:49:59.664Z,6.30
2018-03-15T21:52:25.993Z,6.60
2018-03-15T21:54:52.370Z,6.40
2018-03-15T21:57:18.742Z,6.30
2018-03-15T21:59:45.072Z,6.20
2018-03-15T22:02:11.437Z,6.17
2018-03-15T22:04:37.778Z,6.40
2018-03-15T22:07:04.165Z,5.93
2018-03-15T22:09:30.512Z,6.73
2018-03-15T22:11:56.849Z,5.80
2018-03-15T22:14:23.179Z,6.17
2018-03-15T22:16:49.564Z,5.90
2018-03-15T22:19:15.902Z,6.17
2018-03-15T22:21:42.294Z,5.80
2018-03-15T22:24:08.682Z,5.63
2018-03-15T22:26:35.011Z,5.53
2018-03-15T22:29:01.353Z,5.80
2018-03-15T22:31:27.697Z,5.50
2018-03-15T22:33:54.065Z,5.83
2018-03-15T22:36:20.386Z,5.90
2018-03-15T22:38:46.766Z,5.80
2018-03-15T22:41:13.137Z,5.80
2018-03-15T22:43:39.461Z,5.40
2018-03-15T22:46:05.858Z,5.73
2018-03-15T22:48:32.299Z,5.37
2018-03-15T22:50:58.649Z,5.40
2018-03-15T22:53:25.059Z,5.37
2018-03-15T22:55:51.446Z,5.60
2018-03-15T22:58:17.785Z,5.27
2018-03-15T23:00:44.172Z,5.50
2018-03-15T23:03:10.530Z,5.20
2018-03-15T23:05:36.859Z,5.27
2018-03-15T23:08:03.281Z,5.50
2018-03-15T23:10:29.607Z,5.30
2018-03-15T23:12:55.965Z,5.23
2018-03-15T23:15:22.385Z,5.23
2018-03-15T23:17:48.730Z,5.00
2018-03-15T23:20:15.115Z,5.27
2018-03-15T23:22:41.490Z,4.80
2018-03-15T23:25:07.828Z,5.43
2018-03-15T23:27:34.168Z,5.37
2018-03-15T23:30:00.557Z,5.57
2018-03-15T23:32:26.891Z,4.87
2018-03-15T23:34:53.262Z,4.70
2018-03-15T23:37:19.648Z,4.70
2018-03-15T23:39:46.057Z,4.97
2018-03-15T23:42:12.417Z,5.07
2018-03-15T23:44:38.794Z,5.17
2018-03-15T23:47:05.130Z,4.97
2018-03-15T23:49:31.520Z,4.90
2018-03-15T23:51:57.918Z,4.73
2018-03-15T23:54:24.277Z,4.43
2018-03-15T23:56:50.683Z,4.67
2018-03-15T23:59:17.026Z,4.43
